createdAt,value
2023-08-15T00:01:37.525Z,3.97
2023-08-15T00:04:17.464Z,3.90
2023-08-15T00:07:09.959Z,3.70
2023-08-15T00:10:13.132Z,3.97
2023-08-15T00:12:53.881Z,3.53
2023-08-15T00:15:39.567Z,3.70
2023-08-15T00:18:37.360Z,4.23
2023-08-15T00:21:07.415Z,4.07
2023-08-15T00:24:18.428Z,4.10
2023-08-15T00:27:30.224Z,3.93
2023-08-15T00:30:36.090Z,3.80
2023-08-15T00:33:37.559Z,3.87
2023-08-15T00:36:20.438Z,3.73
2023-08-15T00:39:08.358Z,4.10
2023-08-15T00:41:44.392Z,4.00
2023-08-15T00:44:25.793Z,4.07
2023-08-15T00:47:16.333Z,4.07
2023-08-15T00:50:06.979Z,4.37
2023-08-15T00:52:41.100Z,4.10
2023-08-15T00:55:14.420Z,4.47
2023-08-15T00:58:01.183Z,4.40
2023-08-15T01:00:51.663Z,4.10
2023-08-15T01:04:04.919Z,3.50
2023-08-15T01:07:03.254Z,4.10
2023-08-15T01:10:16.783Z,4.10
2023-08-15T01:13:30.411Z,4.03
2023-08-15T01:16:18.080Z,4.23
2023-08-15T01:19:40.824Z,4.10
2023-08-15T01:22:38.279Z,4.33
2023-08-15T01:25:30.421Z,4.00
2023-08-15T01:28:24.121Z,4.67
2023-08-15T01:31:21.822Z,4.43
2023-08-15T01:34:38.234Z,4.50
2023-08-15T01:37:40.916Z,4.20
2023-08-15T01:40:37.340Z,4.13
2023-08-15T01:43:28.410Z,4.30
2023-08-15T01:46:12.496Z,3.80
2023-08-15T01:49:19.718Z,4.03
2023-08-15T01:52:10.253Z,3.90
2023-08-15T01:55:06.548Z,3.93
2023-08-15T01:58:09.208Z,4.23
2023-08-15T02:00:49.767Z,3.93
2023-08-15T02:03:47.447Z,3.97
2023-08-15T02:06:51.962Z,4.13
2023-08-15T02:10:15.415Z,3.87
2023-08-15T02:12:48.721Z,4.10
2023-08-15T02:15:23.862Z,4.00
2023-08-15T02:17:56.072Z,4.17
2023-08-15T02:20:34.938Z,4.50
2023-08-15T02:23:32.786Z,4.57
2023-08-15T02:26:23.425Z,3.73
2023-08-15T02:29:17.433Z,4.40
2023-08-15T02:32:40.288Z,3.93
2023-08-15T02:35:13.139Z,4.23
2023-08-15T02:38:09.593Z,4.40
2023-08-15T02:41:02.076Z,3.90
2023-08-15T02:44:21.758Z,4.37
2023-08-15T02:46:54.820Z,3.80
2023-08-15T02:50:19.927Z,4.20
2023-08-15T02:53:10.159Z,4.30
2023-08-15T02:56:12.940Z,4.40
2023-08-15T02:59:04.427Z,4.50
2023-08-15T03:01:50.557Z,3.87
2023-08-15T03:04:47.797Z,4.27
2023-08-15T03:07:38.947Z,4.17
2023-08-15T03:10:16.672Z,4.30
2023-08-15T03:12:56.513Z,4.07
2023-08-15T03:15:58.438Z,4.17
2023-08-15T03:18:46.116Z,4.27
2023-08-15T03:21:29.319Z,4.87
2023-08-15T03:24:27.608Z,3.77
2023-08-15T03:27:20.621Z,3.40
2023-08-15T03:30:06.244Z,4.07
2023-08-15T03:32:52.838Z,4.30
2023-08-15T03:35:43.676Z,4.20
2023-08-15T03:38:39.216Z,4.27
2023-08-15T03:41:29.898Z,4.30
2023-08-15T03:44:16.262Z,4.50
2023-08-15T03:46:52.220Z,4.10
2023-08-15T03:49:43.694Z,4.03
2023-08-15T03:52:25.972Z,4.13
2023-08-15T03:55:16.466Z,4.23
2023-08-15T03:58:20.727Z,4.00
2023-08-15T04:01:20.044Z,4.53
2023-08-15T04:04:12.768Z,4.27
2023-08-15T04:07:18.406Z,4.07
2023-08-15T04:09:51.781Z,4.60
2023-08-15T04:12:22.294Z,4.80
2023-08-15T04:15:30.392Z,4.60
2023-08-15T04:18:26.951Z,4.50
2023-08-15T04:21:14.898Z,4.40
2023-08-15T04:23:54.121Z,4.47
2023-08-15T04:26:47.077Z,4.30
2023-08-15T04:29:51.724Z,4.77
2023-08-15T04:32:50.303Z,4.80
2023-08-15T04:35:40.777Z,4.67
2023-08-15T04:38:23.782Z,4.97
2023-08-15T04:40:59.435Z,4.57
2023-08-15T04:43:46.546Z,4.60
2023-08-15T04:46:32.084Z,5.10
2023-08-15T04:49:23.441Z,4.13
2023-08-15T04:52:14.571Z,5.13
2023-08-15T04:54:44.882Z,4.73
2023-08-15T04:57:20.695Z,5.40
2023-08-15T05:00:15.990Z,4.67
2023-08-15T05:02:49.589Z,4.90
2023-08-15T05:05:38.039Z,4.73
2023-08-15T05:08:43.233Z,4.90
2023-08-15T05:11:28.299Z,4.43
2023-08-15T05:14:15.149Z,4.63
2023-08-15T05:16:47.559Z,4.70
2023-08-15T05:19:17.795Z,5.10
2023-08-15T05:22:41.944Z,4.90
2023-08-15T05:25:30.269Z,4.57
2023-08-15T05:28:40.650Z,5.30
2023-08-15T05:31:25.907Z,4.93
2023-08-15T05:34:05.777Z,4.77
2023-08-15T05:37:01.903Z,5.13
2023-08-15T05:39:49.526Z,5.00
2023-08-15T05:42:50.685Z,4.80
2023-08-15T05:45:42.089Z,4.73
2023-08-15T05:48:14.191Z,4.30
2023-08-15T05:51:11.282Z,5.10
2023-08-15T05:53:51.814Z,4.63
2023-08-15T05:56:30.777Z,5.33
2023-08-15T05:59:18.831Z,5.20
2023-08-15T06:02:19.854Z,5.73
2023-08-15T06:05:38.617Z,5.60
2023-08-15T06:08:26.642Z,4.63
2023-08-15T06:11:32.733Z,5.23
2023-08-15T06:14:23.017Z,5.10
2023-08-15T06:16:54.093Z,5.43
2023-08-15T06:19:49.317Z,5.00
2023-08-15T06:22:32.578Z,5.63
2023-08-15T06:25:04.096Z,5.50
2023-08-15T06:27:34.580Z,5.40
2023-08-15T06:31:02.849Z,5.17
2023-08-15T06:33:49.952Z,4.70
2023-08-15T06:36:42.846Z,4.67
2023-08-15T06:39:25.746Z,4.60
2023-08-15T06:41:57.889Z,4.80
2023-08-15T06:45:00.699Z,4.60
2023-08-15T06:47:45.742Z,4.63
2023-08-15T06:50:22.516Z,4.60
2023-08-15T06:53:07.254Z,3.53
2023-08-15T06:55:44.283Z,3.77
2023-08-15T06:58:22.705Z,3.77
2023-08-15T07:01:02.453Z,3.53
2023-08-15T07:03:43.806Z,3.47
2023-08-15T07:06:33.582Z,3.43
2023-08-15T07:09:11.017Z,3.07
2023-08-15T07:12:06.943Z,3.17
2023-08-15T07:15:05.590Z,3.03
2023-08-15T07:17:36.576Z,3.10
2023-08-15T07:20:48.445Z,2.90
2023-08-15T07:23:34.963Z,2.87
2023-08-15T07:26:29.129Z,2.90
2023-08-15T07:29:16.275Z,2.90
2023-08-15T07:31:53.894Z,2.80
2023-08-15T07:34:49.791Z,2.90
2023-08-15T07:38:20.621Z,2.90
2023-08-15T07:41:07.229Z,2.47
2023-08-15T07:43:44.953Z,3.07
2023-08-15T07:46:20.059Z,2.50
2023-08-15T07:49:18.223Z,2.53
2023-08-15T07:51:56.485Z,2.50
2023-08-15T07:54:45.307Z,2.53
2023-08-15T07:57:29.788Z,2.77
2023-08-15T08:00:06.585Z,2.90
2023-08-15T08:02:48.997Z,2.20
2023-08-15T08:05:23.413Z,2.23
2023-08-15T08:08:03.197Z,2.30
2023-08-15T08:11:06.258Z,2.40
2023-08-15T08:13:45.964Z,2.27
2023-08-15T08:16:34.346Z,2.23
2023-08-15T08:19:20.309Z,2.43
2023-08-15T08:22:36.666Z,2.13
2023-08-15T08:25:18.912Z,2.37
2023-08-15T08:28:04.653Z,2.50
2023-08-15T08:30:42.634Z,2.27
2023-08-15T08:33:35.063Z,2.20
2023-08-15T08:36:10.347Z,2.17
2023-08-15T08:38:51.103Z,2.10
2023-08-15T08:41:26.976Z,1.80
2023-08-15T08:44:24.556Z,2.20
2023-08-15T08:47:30.125Z,2.43
2023-08-15T08:50:12.359Z,2.67
2023-08-15T08:53:12.497Z,2.43
2023-08-15T08:56:16.542Z,3.00
2023-08-15T08:58:55.216Z,2.57
2023-08-15T09:01:57.996Z,2.50
2023-08-15T09:04:47.370Z,2.70
2023-08-15T09:07:54.430Z,3.07
2023-08-15T09:10:43.151Z,3.20
2023-08-15T09:13:49.912Z,2.73
2023-08-15T09:16:26.139Z,2.80
2023-08-15T09:19:13.688Z,3.00
2023-08-15T09:21:56.447Z,2.90
2023-08-15T09:24:47.613Z,3.17
2023-08-15T09:27:32.324Z,2.50
2023-08-15T09:30:23.530Z,2.60
2023-08-15T09:32:58.391Z,2.90
2023-08-15T09:36:07.133Z,2.90
2023-08-15T09:38:42.709Z,3.07
2023-08-15T09:41:15.977Z,3.20
2023-08-15T09:44:02.606Z,3.60
2023-08-15T09:46:42.537Z,2.70
2023-08-15T09:49:15.378Z,2.90
2023-08-15T09:52:01.474Z,3.03
2023-08-15T09:54:35.543Z,2.87
2023-08-15T09:57:16.515Z,3.20
2023-08-15T10:00:11.930Z,2.93
2023-08-15T10:03:32.197Z,2.97
2023-08-15T10:06:11.601Z,2.50
2023-08-15T10:08:53.936Z,2.90
2023-08-15T10:12:02.395Z,3.10
2023-08-15T10:14:42.222Z,2.57
2023-08-15T10:17:23.012Z,2.70
2023-08-15T10:20:28.027Z,2.50
2023-08-15T10:23:25.276Z,2.57
2023-08-15T10:26:10.900Z,2.83
2023-08-15T10:28:50.469Z,2.80
2023-08-15T10:31:50.331Z,2.67
2023-08-15T10:34:44.307Z,2.30
2023-08-15T10:37:50.458Z,2.60
2023-08-15T10:40:24.603Z,2.50
2023-08-15T10:43:50.300Z,2.30
2023-08-15T10:46:53.794Z,2.40
2023-08-15T10:49:27.778Z,2.40
2023-08-15T10:52:28.842Z,2.50
2023-08-15T10:55:28.497Z,2.70
2023-08-15T10:58:14.908Z,2.90
2023-08-15T11:00:56.518Z,2.93
2023-08-15T11:03:53.429Z,3.30
2023-08-15T11:06:50.777Z,3.17
2023-08-15T11:09:45.440Z,3.30
2023-08-15T11:12:42.124Z,3.30
2023-08-15T11:15:48.406Z,3.20
2023-08-15T11:18:30.442Z,3.40
2023-08-15T11:21:11.830Z,3.40
2023-08-15T11:24:04.346Z,3.63
2023-08-15T11:27:09.248Z,3.50
2023-08-15T11:29:45.547Z,3.60
2023-08-15T11:32:46.233Z,3.37
2023-08-15T11:35:49.581Z,3.53
2023-08-15T11:38:21.689Z,4.20
2023-08-15T11:41:18.077Z,3.97
2023-08-15T11:44:03.677Z,3.60
2023-08-15T11:46:55.359Z,3.90
2023-08-15T11:49:46.638Z,4.00
2023-08-15T11:52:44.180Z,3.60
2023-08-15T11:55:34.526Z,3.80
2023-08-15T11:58:33.326Z,3.47
2023-08-15T12:01:11.615Z,2.77
2023-08-15T12:04:03.929Z,3.03
2023-08-15T12:07:14.456Z,2.70
2023-08-15T12:10:22.744Z,2.40
2023-08-15T12:13:07.275Z,2.90
2023-08-15T12:15:51.351Z,2.80
2023-08-15T12:18:46.272Z,2.97
2023-08-15T12:21:26.978Z,2.43
2023-08-15T12:24:02.238Z,3.00
2023-08-15T12:26:50.021Z,2.60
2023-08-15T12:30:10.852Z,2.60
2023-08-15T12:32:31.320Z,2.70
2023-08-15T12:35:31.707Z,2.70
2023-08-15T12:38:37.900Z,2.53
2023-08-15T12:41:23.928Z,2.77
2023-08-15T12:44:38.077Z,2.80
2023-08-15T12:47:25.963Z,2.80
2023-08-15T12:50:06.491Z,2.60
2023-08-15T12:52:52.955Z,2.67
2023-08-15T12:55:33.105Z,2.73
2023-08-15T12:58:19.120Z,2.23
2023-08-15T13:01:32.930Z,2.53
2023-08-15T13:04:13.690Z,2.40
2023-08-15T13:06:49.848Z,2.43
2023-08-15T13:09:37.986Z,2.50
2023-08-15T13:12:22.130Z,2.50
2023-08-15T13:15:13.212Z,2.30
2023-08-15T13:18:43.483Z,2.53
2023-08-15T13:21:24.498Z,2.37
2023-08-15T13:24:29.637Z,2.50
2023-08-15T13:27:23.867Z,2.23
2023-08-15T13:30:18.401Z,2.53
2023-08-15T13:32:49.147Z,2.20
2023-08-15T13:35:46.149Z,2.50
2023-08-15T13:38:47.053Z,2.60
2023-08-15T13:41:36.963Z,2.80
2023-08-15T13:44:21.030Z,2.90
2023-08-15T13:46:56.694Z,2.50
2023-08-15T13:49:53.944Z,2.20
2023-08-15T13:52:29.954Z,2.60
2023-08-15T13:55:08.118Z,2.90
2023-08-15T13:57:47.187Z,2.77
2023-08-15T14:00:46.938Z,2.80
2023-08-15T14:03:31.313Z,2.90
2023-08-15T14:06:20.246Z,2.60
2023-08-15T14:09:15.356Z,3.03
2023-08-15T14:11:51.530Z,3.20
2023-08-15T14:14:45.888Z,2.87
2023-08-15T14:17:28.170Z,2.80
2023-08-15T14:20:24.847Z,2.90
2023-08-15T14:23:03.536Z,2.77
2023-08-15T14:25:39.519Z,2.33
2023-08-15T14:28:18.468Z,2.60
2023-08-15T14:31:25.214Z,2.97
2023-08-15T14:34:12.135Z,2.28
2023-08-15T14:36:43.943Z,2.60
2023-08-15T14:39:18.782Z,2.92
2023-08-15T14:42:36.761Z,2.38
2023-08-15T14:45:20.404Z,2.80
2023-08-15T14:48:01.459Z,2.20
2023-08-15T14:50:45.374Z,2.70
2023-08-15T14:53:21.918Z,2.30
2023-08-15T14:56:15.354Z,2.60
2023-08-15T14:59:01.470Z,2.33
2023-08-15T15:01:37.655Z,2.50
2023-08-15T15:04:17.843Z,2.47
2023-08-15T15:07:04.079Z,2.55
2023-08-15T15:10:00.153Z,2.15
2023-08-15T15:12:53.283Z,2.58
2023-08-15T15:16:17.426Z,2.28
2023-08-15T15:19:28.381Z,2.20
2023-08-15T15:22:27.676Z,2.33
2023-08-15T15:25:11.782Z,2.30
2023-08-15T15:27:48.749Z,2.17
2023-08-15T15:30:20.291Z,2.40
2023-08-15T15:33:35.280Z,2.23
2023-08-15T15:36:41.949Z,2.20
2023-08-15T15:39:33.536Z,2.23
2023-08-15T15:42:36.524Z,2.63
2023-08-15T15:45:27.964Z,2.30
2023-08-15T15:48:04.424Z,2.30
2023-08-15T15:50:59.486Z,2.10
2023-08-15T15:53:42.116Z,2.60
2023-08-15T15:56:33.584Z,2.13
2023-08-15T15:59:14.614Z,2.07
2023-08-15T16:01:51.699Z,1.90
2023-08-15T16:04:54.909Z,2.20
2023-08-15T16:08:13.504Z,2.03
2023-08-15T16:11:11.225Z,2.00
2023-08-15T16:13:57.113Z,2.23
2023-08-15T16:16:54.656Z,1.70
2023-08-15T16:19:48.901Z,1.90
2023-08-15T16:22:22.930Z,2.00
2023-08-15T16:25:09.796Z,1.87
2023-08-15T16:28:02.421Z,2.10
2023-08-15T16:31:01.642Z,1.93
2023-08-15T16:34:16.405Z,2.03
2023-08-15T16:37:22.424Z,1.77
2023-08-15T16:40:34.183Z,1.90
2023-08-15T16:43:21.885Z,2.30
2023-08-15T16:46:06.314Z,2.00
2023-08-15T16:48:55.565Z,1.90
2023-08-15T16:52:00.474Z,2.00
2023-08-15T16:54:46.808Z,1.80
2023-08-15T16:57:25.027Z,1.90
2023-08-15T17:00:18.423Z,1.80
2023-08-15T17:02:54.099Z,1.93
2023-08-15T17:05:52.407Z,2.50
2023-08-15T17:08:48.210Z,2.00
2023-08-15T17:11:54.002Z,2.00
2023-08-15T17:14:33.365Z,2.40
2023-08-15T17:17:06.400Z,2.03
2023-08-15T17:19:40.511Z,2.27
2023-08-15T17:22:28.286Z,2.00
2023-08-15T17:25:12.610Z,2.07
2023-08-15T17:27:52.150Z,2.00
2023-08-15T17:30:45.599Z,2.47
2023-08-15T17:33:43.348Z,2.10
2023-08-15T17:36:41.686Z,2.20
2023-08-15T17:39:45.414Z,2.33
2023-08-15T17:42:47.387Z,2.00
2023-08-15T17:45:36.145Z,2.23
2023-08-15T17:48:26.386Z,2.13
2023-08-15T17:51:10.348Z,2.23
2023-08-15T17:54:03.998Z,2.23
2023-08-15T17:56:36.606Z,2.10
2023-08-15T17:59:28.102Z,2.40
2023-08-15T18:02:03.946Z,2.00
2023-08-15T18:05:14.250Z,2.53
2023-08-15T18:07:57.252Z,2.20
2023-08-15T18:10:31.940Z,2.47
2023-08-15T18:13:06.843Z,2.07
2023-08-15T18:15:52.153Z,2.20
2023-08-15T18:18:36.431Z,2.30
2023-08-15T18:21:17.785Z,2.00
2023-08-15T18:24:02.794Z,2.20
2023-08-15T18:27:20.937Z,2.00
2023-08-15T18:30:05.182Z,2.10
2023-08-15T18:32:57.896Z,2.17
2023-08-15T18:35:45.234Z,2.47
2023-08-15T18:38:33.110Z,2.57
2023-08-15T18:41:19.558Z,2.17
2023-08-15T18:44:15.665Z,2.10
2023-08-15T18:46:51.933Z,2.27
2023-08-15T18:49:36.256Z,2.40
2023-08-15T18:52:28.133Z,2.20
2023-08-15T18:55:26.746Z,2.40
2023-08-15T18:58:13.366Z,2.67
2023-08-15T19:01:11.903Z,2.37
2023-08-15T19:03:53.189Z,2.40
2023-08-15T19:06:38.270Z,2.33
2023-08-15T19:09:25.150Z,2.20
2023-08-15T19:11:58.703Z,2.33
2023-08-15T19:15:01.266Z,2.40
2023-08-15T19:18:07.831Z,2.50
2023-08-15T19:20:47.895Z,2.23
2023-08-15T19:23:30.700Z,2.40
2023-08-15T19:26:36.676Z,2.23
2023-08-15T19:30:01.554Z,2.40
2023-08-15T19:32:47.054Z,2.57
2023-08-15T19:35:31.210Z,2.30
2023-08-15T19:38:12.012Z,2.43
2023-08-15T19:40:48.985Z,2.47
2023-08-15T19:43:33.441Z,2.10
2023-08-15T19:46:30.451Z,2.53
2023-08-15T19:49:32.511Z,2.57
2023-08-15T19:52:23.048Z,2.77
2023-08-15T19:55:37.149Z,2.43
2023-08-15T19:58:26.928Z,2.20
2023-08-15T20:01:03.550Z,2.23
2023-08-15T20:03:46.604Z,2.00
2023-08-15T20:06:33.814Z,2.40
2023-08-15T20:09:34.403Z,2.60
2023-08-15T20:12:31.238Z,2.93
2023-08-15T20:15:25.330Z,2.53
2023-08-15T20:18:06.091Z,2.43
2023-08-15T20:20:39.547Z,2.13
2023-08-15T20:23:35.291Z,2.40
2023-08-15T20:26:09.424Z,2.50
2023-08-15T20:29:03.415Z,2.50
2023-08-15T20:31:35.156Z,2.60
2023-08-15T20:34:40.582Z,2.50
2023-08-15T20:38:10.235Z,2.60
2023-08-15T20:40:56.236Z,2.33
2023-08-15T20:43:51.278Z,2.43
2023-08-15T20:46:36.921Z,2.83
2023-08-15T20:49:23.491Z,2.43
2023-08-15T20:52:07.648Z,2.90
2023-08-15T20:54:54.372Z,2.70
2023-08-15T20:57:48.197Z,2.93
2023-08-15T21:00:18.909Z,2.27
2023-08-15T21:03:31.273Z,2.63
2023-08-15T21:06:04.327Z,2.53
2023-08-15T21:09:03.190Z,2.40
2023-08-15T21:11:48.430Z,2.40
2023-08-15T21:14:38.396Z,2.50
2023-08-15T21:17:32.625Z,2.63
2023-08-15T21:20:37.719Z,2.53
2023-08-15T21:23:11.592Z,2.70
2023-08-15T21:25:46.643Z,2.33
2023-08-15T21:29:01.932Z,3.03
2023-08-15T21:31:51.100Z,2.70
2023-08-15T21:34:42.138Z,2.63
2023-08-15T21:37:36.841Z,2.50
2023-08-15T21:40:27.559Z,2.53
2023-08-15T21:43:06.450Z,2.53
2023-08-15T21:46:01.368Z,2.33
2023-08-15T21:49:04.743Z,2.57
2023-08-15T21:52:09.486Z,3.10
2023-08-15T21:54:41.044Z,2.87
2023-08-15T21:57:40.939Z,2.77
2023-08-15T22:00:36.873Z,2.77
2023-08-15T22:03:52.969Z,2.47
2023-08-15T22:06:49.410Z,2.50
2023-08-15T22:10:05.660Z,2.53
2023-08-15T22:12:51.632Z,2.80
2023-08-15T22:15:30.959Z,2.70
2023-08-15T22:18:18.895Z,2.90
2023-08-15T22:21:53.180Z,2.57
2023-08-15T22:25:01.176Z,2.70
2023-08-15T22:27:51.641Z,2.60
2023-08-15T22:30:28.554Z,2.77
2023-08-15T22:33:24.998Z,2.70
2023-08-15T22:36:22.064Z,3.20
2023-08-15T22:39:18.739Z,2.90
2023-08-15T22:42:32.031Z,2.40
2023-08-15T22:45:22.186Z,2.90
2023-08-15T22:48:28.492Z,2.60
2023-08-15T22:51:08.030Z,2.50
2023-08-15T22:53:50.816Z,2.80
2023-08-15T22:56:33.300Z,2.40
2023-08-15T22:59:39.155Z,2.63
2023-08-15T23:02:24.823Z,2.10
2023-08-15T23:05:21.985Z,2.60
2023-08-15T23:08:25.092Z,2.47
2023-08-15T23:11:13.418Z,2.50
2023-08-15T23:13:47.186Z,2.70
2023-08-15T23:16:36.351Z,2.50
2023-08-15T23:19:46.904Z,2.77
2023-08-15T23:23:01.459Z,2.80
2023-08-15T23:25:46.763Z,2.93
2023-08-15T23:28:51.284Z,2.70
2023-08-15T23:32:08.382Z,2.30
2023-08-15T23:34:57.207Z,2.50
2023-08-15T23:37:42.874Z,2.70
2023-08-15T23:40:20.324Z,2.90
2023-08-15T23:43:08.056Z,2.50
2023-08-15T23:45:50.842Z,2.40
2023-08-15T23:48:35.798Z,2.50
2023-08-15T23:51:40.388Z,2.53
2023-08-15T23:54:28.654Z,2.73
2023-08-15T23:57:25.873Z,2.50
